createdAt,value
2023-03-10T00:00:23.402Z,3.80
2023-03-10T00:03:15.634Z,4.70
2023-03-10T00:05:48.070Z,8.30
2023-03-10T00:08:20.423Z,4.60
2023-03-10T00:10:52.703Z,7.90
2023-03-10T00:13:24.908Z,7.50
2023-03-10T00:15:57.120Z,4.40
2023-03-10T00:18:29.463Z,6.90
2023-03-10T00:21:01.916Z,3.70
2023-03-10T00:23:37.010Z,7.90
2023-03-10T00:26:13.174Z,4.50
2023-03-10T00:28:45.504Z,4.20
2023-03-10T00:31:19.702Z,6.10
2023-03-10T00:33:52.341Z,5.40
2023-03-10T00:36:26.181Z,5.80
2023-03-10T00:39:01.118Z,5.90
2023-03-10T00:41:36.715Z,8.60
2023-03-10T00:44:10.374Z,9.00
2023-03-10T00:46:43.029Z,7.40
2023-03-10T00:49:18.267Z,6.30
2023-03-10T00:51:50.623Z,6.50
2023-03-10T00:54:22.930Z,5.00
2023-03-10T00:56:55.832Z,3.50
2023-03-10T00:59:29.558Z,6.10
2023-03-10T01:02:05.469Z,5.20
2023-03-10T01:04:37.971Z,5.30
2023-03-10T01:07:10.400Z,4.30
2023-03-10T01:09:42.716Z,6.10
2023-03-10T01:12:15.038Z,6.10
2023-03-10T01:14:47.425Z,4.60
2023-03-10T01:17:19.734Z,5.90
2023-03-10T01:19:52.130Z,13.70
2023-03-10T01:22:24.900Z,7.70
2023-03-10T01:24:57.055Z,6.70
2023-03-10T01:27:29.338Z,5.30
2023-03-10T01:30:02.135Z,5.00
2023-03-10T01:32:34.533Z,6.70
2023-03-10T01:35:07.752Z,11.70
2023-03-10T01:37:42.005Z,4.90
2023-03-10T01:40:19.131Z,4.80
2023-03-10T01:42:51.458Z,5.50
2023-03-10T01:45:58.417Z,5.40
2023-03-10T01:48:34.374Z,5.70
2023-03-10T01:51:07.170Z,6.10
2023-03-10T01:53:39.642Z,5.20
2023-03-10T01:56:11.999Z,10.50
2023-03-10T01:58:48.183Z,5.80
2023-03-10T02:01:21.969Z,10.10
2023-03-10T02:03:58.594Z,6.90
2023-03-10T02:06:30.907Z,4.90
2023-03-10T02:09:05.987Z,7.00
2023-03-10T02:11:38.845Z,7.20
2023-03-10T02:14:11.405Z,5.10
2023-03-10T02:16:43.977Z,6.70
2023-03-10T02:19:28.589Z,14.10
2023-03-10T02:22:07.834Z,5.30
2023-03-10T02:24:50.801Z,6.60
2023-03-10T02:27:25.852Z,6.50
2023-03-10T02:30:04.249Z,7.00
2023-03-10T02:32:39.762Z,4.40
2023-03-10T02:35:13.502Z,7.70
2023-03-10T02:37:46.091Z,6.80
2023-03-10T02:40:37.805Z,6.00
2023-03-10T02:43:16.622Z,8.30
2023-03-10T02:45:50.353Z,8.90
2023-03-10T02:48:29.969Z,7.50
2023-03-10T02:51:04.179Z,8.10
2023-03-10T02:53:36.632Z,8.80
2023-03-10T02:56:09.686Z,10.50
2023-03-10T02:58:42.077Z,6.60
2023-03-10T03:01:14.534Z,7.50
2023-03-10T03:03:47.205Z,9.70
2023-03-10T03:06:19.556Z,14.80
2023-03-10T03:08:51.919Z,14.60
2023-03-10T03:11:24.922Z,22.00
2023-03-10T03:13:57.373Z,21.50
2023-03-10T03:16:29.726Z,28.90
2023-03-10T03:19:02.119Z,30.80
2023-03-10T03:21:35.199Z,26.60
2023-03-10T03:24:08.310Z,28.70
2023-03-10T03:26:41.551Z,29.50
2023-03-10T03:29:13.985Z,31.80
2023-03-10T03:31:46.341Z,38.80
2023-03-10T03:34:20.814Z,33.90
2023-03-10T03:36:53.289Z,31.30
2023-03-10T03:39:25.751Z,33.30
2023-03-10T03:41:58.184Z,30.50
2023-03-10T03:44:30.504Z,26.40
2023-03-10T03:47:02.801Z,26.80
2023-03-10T03:49:35.803Z,25.20
2023-03-10T03:52:09.159Z,33.20
2023-03-10T03:54:41.474Z,32.60
2023-03-10T03:57:13.751Z,24.60
2023-03-10T03:59:46.039Z,32.10
2023-03-10T04:02:18.823Z,25.10
2023-03-10T04:04:51.152Z,28.50
2023-03-10T04:07:23.436Z,29.00
2023-03-10T04:09:55.872Z,27.40
2023-03-10T04:12:29.721Z,26.20
2023-03-10T04:15:02.049Z,28.60
2023-03-10T04:17:34.469Z,28.40
2023-03-10T04:20:08.879Z,31.00
2023-03-10T04:22:41.420Z,31.70
2023-03-10T04:25:14.396Z,28.00
2023-03-10T04:27:48.114Z,24.80
2023-03-10T04:30:21.238Z,29.60
2023-03-10T04:32:53.604Z,27.70
2023-03-10T04:35:26.014Z,29.20
2023-03-10T04:37:58.752Z,25.60
2023-03-10T04:40:31.056Z,32.20
2023-03-10T04:43:03.411Z,29.30
2023-03-10T04:45:35.779Z,25.90
2023-03-10T04:48:08.892Z,27.90
2023-03-10T04:50:41.090Z,36.90
2023-03-10T04:53:13.549Z,35.30
2023-03-10T04:55:45.729Z,29.40
2023-03-10T04:58:17.991Z,32.40
2023-03-10T05:01:02.216Z,27.00
2023-03-10T05:03:35.843Z,28.00
2023-03-10T05:06:12.394Z,33.50
2023-03-10T05:08:44.640Z,28.80
2023-03-10T05:11:17.131Z,29.00
2023-03-10T05:13:49.484Z,33.50
2023-03-10T05:16:23.962Z,29.60
2023-03-10T05:18:56.719Z,31.20
2023-03-10T05:21:28.976Z,31.10
2023-03-10T05:24:01.618Z,29.20
2023-03-10T05:26:35.022Z,26.90
2023-03-10T05:29:08.190Z,28.00
2023-03-10T05:31:40.889Z,34.50
2023-03-10T05:34:14.203Z,27.30
2023-03-10T05:36:46.645Z,28.60
2023-03-10T05:39:18.964Z,27.30
2023-03-10T05:41:51.281Z,29.40
2023-03-10T05:44:23.558Z,26.90
2023-03-10T05:46:56.397Z,30.00
2023-03-10T05:49:28.758Z,30.80
2023-03-10T05:52:01.286Z,27.30
2023-03-10T05:54:33.804Z,31.80
2023-03-10T05:57:06.483Z,32.10
2023-03-10T05:59:38.852Z,31.20
2023-03-10T06:02:11.225Z,27.40
2023-03-10T06:04:43.613Z,25.30
2023-03-10T06:07:15.934Z,22.30
2023-03-10T06:09:48.387Z,22.50
2023-03-10T06:12:20.848Z,24.40
2023-03-10T06:14:53.117Z,23.00
2023-03-10T06:17:25.393Z,20.90
2023-03-10T06:19:57.667Z,21.90
2023-03-10T06:22:31.392Z,20.90
2023-03-10T06:25:04.952Z,19.40
2023-03-10T06:27:37.306Z,21.70
2023-03-10T06:30:11.795Z,19.70
2023-03-10T06:32:44.265Z,19.20
2023-03-10T06:35:17.957Z,24.70
2023-03-10T06:37:50.258Z,22.60
2023-03-10T06:40:23.215Z,22.10
2023-03-10T06:42:55.613Z,21.60
2023-03-10T06:45:28.035Z,20.20
2023-03-10T06:48:00.807Z,21.20
2023-03-10T06:50:33.090Z,20.30
2023-03-10T06:53:05.396Z,23.40
2023-03-10T06:55:38.137Z,20.90
2023-03-10T06:58:10.555Z,21.50
2023-03-10T07:00:43.284Z,26.20
2023-03-10T07:03:15.652Z,21.20
2023-03-10T07:05:48.031Z,21.10
2023-03-10T07:08:20.318Z,22.20
2023-03-10T07:10:52.705Z,25.20
2023-03-10T07:13:25.043Z,17.10
2023-03-10T07:15:57.964Z,18.20
2023-03-10T07:18:30.236Z,20.70
2023-03-10T07:21:02.533Z,19.70
2023-03-10T07:23:35.107Z,21.50
2023-03-10T07:26:09.350Z,21.60
2023-03-10T07:28:42.035Z,19.10
2023-03-10T07:31:19.230Z,16.00
2023-03-10T07:33:51.475Z,18.70
2023-03-10T07:36:24.413Z,18.10
2023-03-10T07:38:56.833Z,18.10
2023-03-10T07:41:29.154Z,17.90
2023-03-10T07:44:01.474Z,19.90
2023-03-10T07:46:33.878Z,18.00
2023-03-10T07:49:06.818Z,17.70
2023-03-10T07:51:39.324Z,19.50
2023-03-10T07:54:13.228Z,20.60
2023-03-10T07:56:45.448Z,24.10
2023-03-10T07:59:17.675Z,22.10
2023-03-10T08:01:50.449Z,18.60
2023-03-10T08:04:22.862Z,21.00
2023-03-10T08:06:55.352Z,21.80
2023-03-10T08:09:28.502Z,17.70
2023-03-10T08:12:01.843Z,20.20
2023-03-10T08:14:34.957Z,22.10
2023-03-10T08:17:07.276Z,19.00
2023-03-10T08:19:40.827Z,29.70
2023-03-10T08:22:13.162Z,18.50
2023-03-10T08:24:45.431Z,17.10
2023-03-10T08:27:17.738Z,22.30
2023-03-10T08:29:50.070Z,20.20
2023-03-10T08:32:22.473Z,28.70
2023-03-10T08:34:54.726Z,20.10
2023-03-10T08:37:27.160Z,21.00
2023-03-10T08:40:00.949Z,18.60
2023-03-10T08:42:36.599Z,25.70
2023-03-10T08:45:10.080Z,16.60
2023-03-10T08:47:42.485Z,19.50
2023-03-10T08:50:15.819Z,17.80
2023-03-10T08:52:48.260Z,18.50
2023-03-10T08:55:20.605Z,19.10
2023-03-10T08:57:52.930Z,16.40
2023-03-10T09:00:26.332Z,22.60
2023-03-10T09:02:58.565Z,16.20
2023-03-10T09:05:31.194Z,16.70
2023-03-10T09:08:03.535Z,20.30
2023-03-10T09:10:36.184Z,18.10
2023-03-10T09:13:14.170Z,15.20
2023-03-10T09:15:46.793Z,14.70
2023-03-10T09:18:19.565Z,16.70
2023-03-10T09:20:51.894Z,17.10
2023-03-10T09:23:24.163Z,18.50
2023-03-10T09:25:56.389Z,20.00
2023-03-10T09:28:28.888Z,16.20
2023-03-10T09:31:01.288Z,18.40
2023-03-10T09:33:35.160Z,18.60
2023-03-10T09:36:08.806Z,17.10
2023-03-10T09:38:42.207Z,12.20
2023-03-10T09:41:37.007Z,12.30
2023-03-10T09:44:23.943Z,14.10
2023-03-10T09:47:09.513Z,17.70
2023-03-10T09:49:45.217Z,19.40
2023-03-10T09:55:00.162Z,19.30
2023-03-10T09:57:32.721Z,16.80
2023-03-10T10:00:09.179Z,23.60
2023-03-10T10:02:46.970Z,16.70
2023-03-10T10:05:25.239Z,16.70
2023-03-10T10:07:58.650Z,21.90
2023-03-10T10:10:34.646Z,16.80
2023-03-10T10:13:15.074Z,11.80
2023-03-10T10:16:07.377Z,9.80
2023-03-10T10:18:54.988Z,10.80
2023-03-10T10:21:41.727Z,13.30
2023-03-10T10:24:15.122Z,11.20
2023-03-10T10:26:47.492Z,15.60
2023-03-10T10:29:23.806Z,12.80
2023-03-10T10:32:11.675Z,12.90
2023-03-10T10:34:46.129Z,10.20
2023-03-10T10:37:35.352Z,13.40
2023-03-10T10:40:26.873Z,11.90
2023-03-10T10:43:01.272Z,12.20
2023-03-10T10:45:37.297Z,13.90
2023-03-10T10:48:29.467Z,8.20
2023-03-10T10:51:02.379Z,8.80
2023-03-10T10:53:36.184Z,8.30
2023-03-10T10:56:15.215Z,9.10
2023-03-10T10:59:01.656Z,5.10
2023-03-10T11:01:50.774Z,4.90
2023-03-10T11:04:24.068Z,5.10
2023-03-10T11:07:10.032Z,6.80
2023-03-10T11:09:42.633Z,6.90
2023-03-10T11:12:22.161Z,12.70
2023-03-10T11:15:07.641Z,5.10
2023-03-10T11:17:47.331Z,6.10
2023-03-10T11:20:29.493Z,3.80
2023-03-10T11:23:12.156Z,6.10
2023-03-10T11:25:51.741Z,6.80
2023-03-10T11:28:39.687Z,6.90
2023-03-10T11:31:27.563Z,4.50
2023-03-10T11:34:14.827Z,3.60
2023-03-10T11:36:56.630Z,3.00
2023-03-10T11:39:40.350Z,6.60
2023-03-10T11:42:24.581Z,2.60
2023-03-10T11:45:14.154Z,3.90
2023-03-10T11:47:57.408Z,4.50
2023-03-10T11:50:39.267Z,2.60
2023-03-10T11:53:17.789Z,5.50
2023-03-10T11:55:52.511Z,3.40
2023-03-10T11:58:29.286Z,9.70
2023-03-10T12:01:02.229Z,5.40
2023-03-10T12:03:48.598Z,4.50
2023-03-10T12:06:26.916Z,3.10
2023-03-10T12:09:02.999Z,3.50
2023-03-10T12:11:36.787Z,4.10
2023-03-10T12:14:13.012Z,3.50
2023-03-10T12:16:46.284Z,4.90
2023-03-10T12:19:18.658Z,7.30
2023-03-10T12:22:24.989Z,6.70
2023-03-10T12:24:57.310Z,2.90
2023-03-10T12:27:29.645Z,2.20
2023-03-10T12:30:01.974Z,5.20
2023-03-10T12:32:49.153Z,6.80
2023-03-10T12:35:47.726Z,0.70
2023-03-10T12:38:32.074Z,3.20
2023-03-10T12:41:04.633Z,4.80
2023-03-10T12:43:57.883Z,2.90
2023-03-10T12:46:48.793Z,1.40
2023-03-10T12:49:37.627Z,3.10
2023-03-10T12:52:22.594Z,1.70
2023-03-10T12:55:19.987Z,4.10
2023-03-10T12:58:01.743Z,1.50
2023-03-10T13:00:45.935Z,2.70
2023-03-10T13:03:27.667Z,2.10
2023-03-10T13:06:06.436Z,1.60
2023-03-10T13:08:45.693Z,2.30
2023-03-10T13:11:28.686Z,2.40
2023-03-10T13:14:04.142Z,2.30
2023-03-10T13:16:36.765Z,2.10
2023-03-10T13:19:20.187Z,2.80
2023-03-10T13:21:53.314Z,3.10
2023-03-10T13:24:28.672Z,4.10
2023-03-10T13:27:12.809Z,3.00
2023-03-10T13:29:57.609Z,3.30
2023-03-10T13:32:31.366Z,2.80
2023-03-10T13:35:17.846Z,6.60
2023-03-10T13:38:06.555Z,3.30
2023-03-10T13:40:40.945Z,1.40
2023-03-10T13:43:33.839Z,3.70
2023-03-10T13:46:10.122Z,2.70
2023-03-10T13:48:44.758Z,1.40
2023-03-10T13:51:23.105Z,7.60
2023-03-10T13:53:58.671Z,2.50
2023-03-10T13:59:07.945Z,1.50
2023-03-10T14:01:48.007Z,9.20
2023-03-10T14:04:38.914Z,1.30
2023-03-10T14:07:13.156Z,1.00
2023-03-10T14:09:45.646Z,5.40
2023-03-10T14:12:35.757Z,2.30
2023-03-10T14:15:23.036Z,3.70
2023-03-10T14:18:17.395Z,1.70
2023-03-10T14:20:50.354Z,8.10
2023-03-10T14:23:38.850Z,5.30
2023-03-10T14:26:18.146Z,8.30
2023-03-10T14:28:50.310Z,2.50
2023-03-10T14:31:25.303Z,5.50
2023-03-10T14:33:57.665Z,4.90
2023-03-10T14:36:29.972Z,6.60
2023-03-10T14:39:02.297Z,2.90
2023-03-10T14:41:34.955Z,2.40
2023-03-10T14:44:07.281Z,2.20
2023-03-10T14:46:39.807Z,2.80
2023-03-10T14:49:17.658Z,3.40
2023-03-10T14:51:50.114Z,1.60
2023-03-10T14:54:24.307Z,9.70
2023-03-10T14:57:00.021Z,8.30
2023-03-10T15:02:08.417Z,2.80
2023-03-10T15:04:40.865Z,1.60
2023-03-10T15:07:15.371Z,3.50
2023-03-10T15:09:50.827Z,3.60
2023-03-10T15:12:27.031Z,3.90
2023-03-10T15:14:59.965Z,3.80
2023-03-10T15:17:32.485Z,3.30
2023-03-10T15:20:08.497Z,1.70
2023-03-10T15:22:40.777Z,2.80
2023-03-10T15:25:14.486Z,4.60
2023-03-10T15:27:48.441Z,0.90
2023-03-10T15:30:24.239Z,1.30
2023-03-10T15:32:56.630Z,3.20
2023-03-10T15:35:29.504Z,2.00
2023-03-10T15:38:01.890Z,2.10
2023-03-10T15:40:36.035Z,4.20
2023-03-10T15:43:08.864Z,2.40
2023-03-10T15:45:46.753Z,7.10
2023-03-10T15:48:19.352Z,5.80
2023-03-10T15:50:51.724Z,8.50
2023-03-10T15:53:24.002Z,5.80
2023-03-10T15:55:56.397Z,9.60
2023-03-10T15:58:28.688Z,6.10
2023-03-10T16:01:00.959Z,3.60
2023-03-10T16:03:35.268Z,5.00
2023-03-10T16:06:09.658Z,6.30
2023-03-10T16:08:41.949Z,6.80
2023-03-10T16:11:21.744Z,4.80
2023-03-10T16:13:54.070Z,2.30
2023-03-10T16:16:26.633Z,2.20
2023-03-10T16:18:59.202Z,1.50
2023-03-10T16:21:31.448Z,3.30
2023-03-10T16:24:03.901Z,6.00
2023-03-10T16:26:36.742Z,3.00
2023-03-10T16:29:09.048Z,7.10
2023-03-10T16:31:42.957Z,4.40
2023-03-10T16:34:15.331Z,10.10
2023-03-10T16:36:47.689Z,9.30
2023-03-10T16:39:20.001Z,9.10
2023-03-10T16:41:52.637Z,5.70
2023-03-10T16:44:24.977Z,8.10
2023-03-10T16:46:57.328Z,8.60
2023-03-10T16:49:32.136Z,10.50
2023-03-10T16:52:08.002Z,19.70
2023-03-10T16:54:40.422Z,6.50
2023-03-10T16:57:12.715Z,8.40
2023-03-10T16:59:46.514Z,6.20
2023-03-10T17:02:19.250Z,8.90
2023-03-10T17:04:51.592Z,8.10
2023-03-10T17:07:24.030Z,6.70
2023-03-10T17:09:56.326Z,8.90
2023-03-10T17:12:28.662Z,7.00
2023-03-10T17:15:00.980Z,4.00
2023-03-10T17:17:33.868Z,7.20
2023-03-10T17:20:07.965Z,4.10
2023-03-10T17:22:40.245Z,4.90
2023-03-10T17:25:15.998Z,3.50
2023-03-10T17:30:21.037Z,5.10
2023-03-10T17:32:53.271Z,3.00
2023-03-10T17:35:25.650Z,6.50
2023-03-10T17:37:57.844Z,8.80
2023-03-10T17:40:30.286Z,3.90
2023-03-10T17:43:13.136Z,6.00
2023-03-10T17:46:01.347Z,8.00
2023-03-10T17:48:34.708Z,8.30
2023-03-10T17:51:07.276Z,8.00
2023-03-10T17:53:39.563Z,5.10
2023-03-10T17:56:12.190Z,5.60
2023-03-10T17:58:44.676Z,6.50
2023-03-10T18:01:18.493Z,8.60
2023-03-10T18:03:50.820Z,22.80
2023-03-10T18:06:25.048Z,28.40
2023-03-10T18:08:58.345Z,27.60
2023-03-10T18:11:31.742Z,14.80
2023-03-10T18:14:04.326Z,9.90
2023-03-10T18:16:39.341Z,12.10
2023-03-10T18:19:12.017Z,11.60
2023-03-10T18:21:44.450Z,11.50
2023-03-10T18:24:17.090Z,11.10
2023-03-10T18:26:49.365Z,13.50
2023-03-10T18:29:21.574Z,9.90
2023-03-10T18:31:54.003Z,10.10
2023-03-10T18:34:26.214Z,9.70
2023-03-10T18:36:58.492Z,14.20
2023-03-10T18:39:30.701Z,12.40
2023-03-10T18:42:03.331Z,13.00
2023-03-10T18:44:35.646Z,8.80
2023-03-10T18:47:07.928Z,9.60
2023-03-10T18:49:40.250Z,8.30
2023-03-10T18:52:16.100Z,12.10
2023-03-10T18:54:49.744Z,9.30
2023-03-10T18:57:22.057Z,6.90
2023-03-10T18:59:54.319Z,7.10
2023-03-10T19:02:26.706Z,9.70
2023-03-10T19:05:00.934Z,6.20
2023-03-10T19:07:33.927Z,7.70
2023-03-10T19:10:06.752Z,6.20
2023-03-10T19:12:39.492Z,5.90
2023-03-10T19:15:14.756Z,7.20
2023-03-10T19:17:47.129Z,4.80
2023-03-10T19:20:20.101Z,20.50
2023-03-10T19:22:53.293Z,6.60
2023-03-10T19:25:25.626Z,7.70
2023-03-10T19:27:57.897Z,6.00
2023-03-10T19:30:31.832Z,6.40
2023-03-10T19:33:04.100Z,7.80
2023-03-10T19:35:36.544Z,12.10
2023-03-10T19:38:09.005Z,6.60
2023-03-10T19:40:41.337Z,9.40
2023-03-10T19:43:13.634Z,6.10
2023-03-10T19:45:45.946Z,12.10
2023-03-10T19:48:18.235Z,8.30
2023-03-10T19:50:55.722Z,7.30
2023-03-10T19:53:32.850Z,7.40
2023-03-10T19:56:08.740Z,11.10
2023-03-10T19:58:41.220Z,6.50
2023-03-10T20:01:17.343Z,5.60
2023-03-10T20:03:49.737Z,5.40
2023-03-10T20:06:22.495Z,8.40
2023-03-10T20:08:57.251Z,4.30
2023-03-10T20:11:29.502Z,8.30
2023-03-10T20:14:01.851Z,5.60
2023-03-10T20:16:35.350Z,7.00
2023-03-10T20:19:07.658Z,4.60
2023-03-10T20:21:41.675Z,6.30
2023-03-10T20:24:14.065Z,4.40
2023-03-10T20:26:46.378Z,8.70
2023-03-10T20:29:19.247Z,4.30
2023-03-10T20:31:51.523Z,5.50
2023-03-10T20:34:25.898Z,5.20
2023-03-10T20:36:58.335Z,6.90
2023-03-10T20:39:30.688Z,7.10
2023-03-10T20:42:02.903Z,6.70
2023-03-10T20:44:37.836Z,8.10
2023-03-10T20:47:10.212Z,8.20
2023-03-10T20:49:42.399Z,10.10
2023-03-10T20:52:15.143Z,6.00
2023-03-10T20:54:47.406Z,6.40
2023-03-10T20:57:19.760Z,7.00
2023-03-10T20:59:52.096Z,6.70
2023-03-10T21:02:24.589Z,8.90
2023-03-10T21:04:58.006Z,9.30
2023-03-10T21:07:30.268Z,6.80
2023-03-10T21:10:04.230Z,10.10
2023-03-10T21:12:36.828Z,7.10
2023-03-10T21:15:12.089Z,7.50
2023-03-10T21:17:44.483Z,7.40
2023-03-10T21:20:19.720Z,5.90
2023-03-10T21:22:52.202Z,9.00
2023-03-10T21:25:26.700Z,8.10
2023-03-10T21:28:00.062Z,7.70
2023-03-10T21:30:34.274Z,8.20
2023-03-10T21:33:06.746Z,6.20
2023-03-10T21:35:40.649Z,7.90
2023-03-10T21:38:12.894Z,18.60
2023-03-10T21:40:45.132Z,13.30
2023-03-10T21:43:17.320Z,12.10
2023-03-10T21:45:49.733Z,7.10
2023-03-10T21:48:22.060Z,8.00
2023-03-10T21:50:54.264Z,8.50
2023-03-10T21:53:26.895Z,8.50
2023-03-10T21:56:00.883Z,14.20
2023-03-10T21:58:35.117Z,7.80
2023-03-10T22:01:08.384Z,8.80
2023-03-10T22:03:41.237Z,9.80
2023-03-10T22:06:13.547Z,15.70
2023-03-10T22:08:45.770Z,6.80
2023-03-10T22:11:18.192Z,8.60
2023-03-10T22:13:51.422Z,8.40
2023-03-10T22:16:24.145Z,8.50
2023-03-10T22:18:56.612Z,8.50
2023-03-10T22:21:28.967Z,8.40
2023-03-10T22:24:01.204Z,14.40
2023-03-10T22:26:33.437Z,13.50
2023-03-10T22:29:05.795Z,11.50
2023-03-10T22:31:38.287Z,9.50
2023-03-10T22:34:10.631Z,11.00
2023-03-10T22:36:42.860Z,7.90
2023-03-10T22:39:18.292Z,7.40
2023-03-10T22:41:50.734Z,7.90
2023-03-10T22:44:23.096Z,8.00
2023-03-10T22:46:55.548Z,9.80
2023-03-10T22:49:27.798Z,10.50
2023-03-10T22:52:00.062Z,11.30
2023-03-10T22:54:32.493Z,10.10
2023-03-10T22:57:04.749Z,9.10
2023-03-10T22:59:36.953Z,17.20
2023-03-10T23:02:10.855Z,10.90
2023-03-10T23:04:44.639Z,14.10
2023-03-10T23:07:16.902Z,9.40
2023-03-10T23:09:49.215Z,9.50
2023-03-10T23:12:21.872Z,10.10
2023-03-10T23:14:54.241Z,16.10
2023-03-10T23:17:26.637Z,12.90
2023-03-10T23:19:59.132Z,17.50
2023-03-10T23:22:31.483Z,12.40
2023-03-10T23:25:04.434Z,10.20
2023-03-10T23:27:36.771Z,11.80
2023-03-10T23:30:11.806Z,10.90
2023-03-10T23:32:44.322Z,16.50
2023-03-10T23:35:18.020Z,11.60
2023-03-10T23:37:50.368Z,9.90
2023-03-10T23:40:27.189Z,12.80
2023-03-10T23:43:01.516Z,17.80
2023-03-10T23:45:36.635Z,11.60
2023-03-10T23:48:12.917Z,10.30
2023-03-10T23:50:47.384Z,9.60
2023-03-10T23:53:21.333Z,10.50
2023-03-10T23:55:56.962Z,13.30
2023-03-10T23:58:29.586Z,13.20
